createdAt,value
2022-08-22T00:01:21.342Z,9.68
2022-08-22T00:03:07.178Z,13.63
2022-08-22T00:04:06.769Z,12.15
2022-08-22T00:06:55.348Z,11.82
2022-08-22T00:09:29.404Z,12.45
2022-08-22T00:12:12.223Z,9.05
2022-08-22T00:14:46.838Z,10.55
2022-08-22T00:17:38.547Z,10.00
2022-08-22T00:20:11.027Z,12.15
2022-08-22T00:22:55.405Z,8.95
2022-08-22T00:25:47.625Z,10.70
2022-08-22T00:28:30.001Z,10.68
2022-08-22T00:31:18.064Z,12.77
2022-08-22T00:34:17.447Z,12.27
2022-08-22T00:36:52.733Z,9.90
2022-08-22T00:39:27.111Z,7.50
2022-08-22T00:41:56.762Z,10.63
2022-08-22T00:45:12.872Z,13.73
2022-08-22T00:47:59.961Z,13.10
2022-08-22T00:50:51.526Z,10.63
2022-08-22T00:53:36.571Z,10.82
2022-08-22T00:56:26.518Z,11.95
2022-08-22T00:59:23.516Z,12.20
2022-08-22T01:02:31.835Z,15.30
2022-08-22T01:05:07.689Z,11.02
2022-08-22T01:07:50.969Z,10.07
2022-08-22T01:10:48.395Z,9.97
2022-08-22T01:13:28.782Z,11.02
2022-08-22T01:16:23.373Z,13.35
2022-08-22T01:19:38.046Z,9.57
2022-08-22T01:22:26.428Z,9.35
2022-08-22T01:25:18.427Z,11.75
2022-08-22T01:28:31.632Z,13.73
2022-08-22T01:31:48.829Z,14.05
2022-08-22T01:34:34.031Z,11.48
2022-08-22T01:37:30.787Z,8.07
2022-08-22T01:40:22.112Z,12.35
2022-08-22T01:43:05.579Z,12.20
2022-08-22T01:45:53.408Z,10.80
2022-08-22T01:48:48.111Z,8.23
2022-08-22T01:51:24.335Z,14.88
2022-08-22T01:54:07.670Z,14.35
2022-08-22T01:56:41.562Z,11.85
2022-08-22T01:59:14.934Z,11.85
2022-08-22T02:01:52.514Z,9.95
2022-08-22T02:04:33.411Z,11.13
2022-08-22T02:07:06.185Z,11.98
2022-08-22T02:09:36.304Z,10.10
2022-08-22T02:12:26.188Z,11.65
2022-08-22T02:14:59.192Z,13.13
2022-08-22T02:17:35.642Z,11.53
2022-08-22T02:20:20.441Z,12.10
2022-08-22T02:23:18.368Z,10.07
2022-08-22T02:26:04.126Z,11.95
2022-08-22T02:28:35.776Z,7.18
2022-08-22T02:31:21.776Z,11.93
2022-08-22T02:34:01.216Z,10.10
2022-08-22T02:36:43.665Z,10.27
2022-08-22T02:39:40.492Z,7.22
2022-08-22T02:42:33.357Z,11.05
2022-08-22T02:45:17.818Z,9.27
2022-08-22T02:48:26.361Z,12.43
2022-08-22T02:51:17.079Z,10.25
2022-08-22T02:54:09.058Z,8.77
2022-08-22T02:56:59.942Z,13.77
2022-08-22T02:59:32.930Z,9.32
2022-08-22T03:02:34.792Z,8.88
2022-08-22T03:05:33.976Z,12.07
2022-08-22T03:08:30.783Z,11.32
2022-08-22T03:10:57.793Z,7.90
2022-08-22T03:13:48.436Z,11.07
2022-08-22T03:16:40.407Z,13.57
2022-08-22T03:19:20.211Z,12.05
2022-08-22T03:22:26.683Z,10.80
2022-08-22T03:24:59.478Z,8.30
2022-08-22T03:27:34.566Z,12.95
2022-08-22T03:30:07.819Z,13.82
2022-08-22T03:32:54.509Z,12.45
2022-08-22T03:35:53.730Z,10.00
2022-08-22T03:38:22.994Z,12.95
2022-08-22T03:40:52.966Z,18.27
2022-08-22T03:43:43.919Z,16.02
2022-08-22T03:46:31.786Z,18.00
2022-08-22T03:49:32.683Z,14.90
2022-08-22T03:52:12.646Z,14.30
2022-08-22T03:55:19.186Z,17.40
2022-08-22T03:58:27.589Z,16.83
2022-08-22T04:01:20.729Z,12.10
2022-08-22T04:04:22.767Z,15.38
2022-08-22T04:07:28.320Z,24.42
2022-08-22T04:10:33.599Z,16.00
2022-08-22T04:13:39.642Z,15.00
2022-08-22T04:16:24.578Z,12.07
2022-08-22T04:19:24.043Z,16.63
2022-08-22T04:22:02.492Z,15.73
2022-08-22T04:24:35.395Z,13.15
2022-08-22T04:27:07.603Z,17.37
2022-08-22T04:29:41.835Z,12.55
2022-08-22T04:32:30.289Z,15.73
2022-08-22T04:35:12.067Z,13.25
2022-08-22T04:37:44.379Z,15.70
2022-08-22T04:40:27.640Z,12.90
2022-08-22T04:43:01.741Z,13.30
2022-08-22T04:45:56.768Z,13.63
2022-08-22T04:48:32.086Z,10.80
2022-08-22T04:51:15.610Z,10.50
2022-08-22T04:53:56.369Z,11.25
2022-08-22T04:56:46.274Z,11.00
2022-08-22T04:59:17.805Z,9.65
2022-08-22T05:01:53.744Z,13.70
2022-08-22T05:04:35.674Z,12.35
2022-08-22T05:07:08.955Z,11.90
2022-08-22T05:09:39.410Z,11.07
2022-08-22T05:12:12.090Z,10.73
2022-08-22T05:14:51.495Z,13.48
2022-08-22T05:17:25.502Z,16.42
2022-08-22T05:19:55.993Z,9.27
2022-08-22T05:22:30.872Z,10.75
2022-08-22T05:25:02.597Z,11.68
2022-08-22T05:27:35.824Z,11.70
2022-08-22T05:30:13.132Z,14.13
2022-08-22T05:33:09.098Z,16.00
2022-08-22T05:35:49.567Z,13.57
2022-08-22T05:38:21.163Z,10.55
2022-08-22T05:40:59.730Z,10.23
2022-08-22T05:43:27.348Z,10.07
2022-08-22T05:45:58.102Z,9.05
2022-08-22T05:48:43.751Z,13.55
2022-08-22T05:51:26.311Z,14.57
2022-08-22T05:54:09.091Z,12.40
2022-08-22T05:56:46.137Z,17.85
2022-08-22T05:59:32.871Z,11.40
2022-08-22T06:02:05.248Z,15.90
2022-08-22T06:04:55.870Z,16.98
2022-08-22T06:07:27.169Z,14.65
2022-08-22T06:10:15.527Z,10.82
2022-08-22T06:12:48.246Z,11.63
2022-08-22T06:15:32.740Z,10.45
2022-08-22T06:18:12.503Z,10.13
2022-08-22T06:20:56.125Z,10.80
2022-08-22T06:23:48.522Z,18.88
2022-08-22T06:26:20.478Z,10.93
2022-08-22T06:28:54.654Z,20.25
2022-08-22T06:31:47.234Z,14.30
2022-08-22T06:34:18.038Z,17.30
2022-08-22T06:36:49.190Z,12.57
2022-08-22T06:39:22.848Z,14.73
2022-08-22T06:41:53.003Z,14.52
2022-08-22T06:44:37.710Z,11.15
2022-08-22T06:47:08.400Z,17.00
2022-08-22T06:49:37.518Z,11.32
2022-08-22T06:52:11.617Z,12.98
2022-08-22T06:54:45.591Z,11.70
2022-08-22T06:57:32.782Z,14.88
2022-08-22T07:00:02.387Z,12.70
2022-08-22T07:02:38.300Z,15.88
2022-08-22T07:05:09.883Z,11.10
2022-08-22T07:07:37.862Z,11.20
2022-08-22T07:10:05.420Z,14.05
2022-08-22T07:12:37.812Z,15.20
2022-08-22T07:15:35.086Z,14.02
2022-08-22T07:18:08.727Z,14.65
2022-08-22T07:20:42.049Z,13.18
2022-08-22T07:23:54.621Z,12.05
2022-08-22T07:26:33.733Z,11.82
2022-08-22T07:29:11.308Z,15.50
2022-08-22T07:31:53.511Z,14.07
2022-08-22T07:34:55.203Z,20.42
2022-08-22T07:37:36.591Z,10.95
2022-08-22T07:40:28.306Z,11.15
2022-08-22T07:43:21.303Z,13.30
2022-08-22T07:46:29.760Z,13.10
2022-08-22T07:49:10.211Z,16.08
2022-08-22T07:51:45.138Z,11.50
2022-08-22T07:54:16.596Z,17.80
2022-08-22T07:56:52.863Z,15.27
2022-08-22T07:59:22.433Z,13.80
2022-08-22T08:01:53.887Z,10.52
2022-08-22T08:04:40.225Z,12.40
2022-08-22T08:07:11.081Z,12.93
2022-08-22T08:09:43.284Z,12.88
2022-08-22T08:12:11.865Z,15.60
2022-08-22T08:14:42.584Z,10.50
2022-08-22T08:17:22.011Z,10.80
2022-08-22T08:19:50.829Z,12.23
2022-08-22T08:22:23.674Z,10.15
2022-08-22T08:24:53.970Z,13.63
2022-08-22T08:27:43.387Z,10.18
2022-08-22T08:30:19.218Z,8.45
2022-08-22T08:32:57.550Z,10.73
2022-08-22T08:36:02.455Z,15.48
2022-08-22T08:38:37.707Z,11.68
2022-08-22T08:41:42.366Z,14.18
2022-08-22T08:44:27.172Z,13.40
2022-08-22T08:47:27.820Z,16.85
2022-08-22T08:50:07.078Z,15.15
2022-08-22T08:53:01.273Z,10.20
2022-08-22T08:55:56.379Z,13.00
2022-08-22T08:58:32.914Z,10.43
2022-08-22T09:01:14.082Z,13.90
2022-08-22T09:04:19.644Z,11.48
2022-08-22T09:07:11.854Z,9.23
2022-08-22T09:10:11.133Z,12.00
2022-08-22T09:16:19.364Z,8.88
2022-08-22T09:19:14.262Z,15.65
2022-08-22T09:22:14.492Z,11.38
2022-08-22T09:25:06.553Z,8.65
2022-08-22T09:28:01.492Z,12.85
2022-08-22T09:30:58.020Z,14.77
2022-08-22T09:33:56.780Z,8.68
2022-08-22T09:36:42.091Z,7.57
2022-08-22T09:39:22.184Z,8.85
2022-08-22T09:41:59.948Z,9.15
2022-08-22T09:44:43.794Z,9.85
2022-08-22T09:47:43.771Z,8.93
2022-08-22T09:50:29.521Z,8.82
2022-08-22T09:53:31.076Z,8.43
2022-08-22T09:56:21.210Z,10.65
2022-08-22T09:59:20.982Z,11.88
2022-08-22T10:01:59.466Z,15.38
2022-08-22T10:04:46.678Z,10.82
2022-08-22T10:07:35.145Z,9.98
2022-08-22T10:10:23.530Z,8.75
2022-08-22T10:13:14.380Z,11.88
2022-08-22T10:15:56.436Z,12.07
2022-08-22T10:18:52.684Z,11.77
2022-08-22T10:21:32.910Z,12.18
2022-08-22T10:24:26.574Z,9.27
2022-08-22T10:26:58.131Z,8.85
2022-08-22T10:30:08.361Z,10.68
2022-08-22T10:32:42.826Z,12.30
2022-08-22T10:35:33.812Z,11.98
2022-08-22T10:38:12.434Z,16.65
2022-08-22T10:41:00.091Z,12.18
2022-08-22T10:43:49.860Z,14.40
2022-08-22T10:47:00.792Z,11.50
2022-08-22T10:49:51.124Z,8.88
2022-08-22T10:52:32.984Z,21.65
2022-08-22T10:55:13.378Z,15.40
2022-08-22T10:58:05.079Z,17.15
2022-08-22T11:00:50.717Z,7.72
2022-08-22T11:03:47.877Z,11.77
2022-08-22T11:06:23.701Z,7.57
2022-08-22T11:09:09.910Z,12.52
2022-08-22T11:11:56.098Z,7.68
2022-08-22T11:14:47.446Z,7.13
2022-08-22T11:17:28.250Z,9.50
2022-08-22T11:20:31.936Z,8.05
2022-08-22T11:23:18.248Z,7.88
2022-08-22T11:25:57.417Z,9.88
2022-08-22T11:28:53.455Z,8.55
2022-08-22T11:32:05.719Z,9.23
2022-08-22T11:37:43.993Z,10.32
2022-08-22T11:40:36.286Z,9.85
2022-08-22T11:43:11.962Z,7.22
2022-08-22T11:45:49.557Z,8.55
2022-08-22T11:48:17.735Z,9.27
2022-08-22T11:50:51.488Z,9.13
2022-08-22T11:53:36.966Z,8.32
2022-08-22T11:56:43.254Z,11.27
2022-08-22T11:59:55.378Z,6.70
2022-08-22T12:02:41.513Z,8.85
2022-08-22T12:05:26.466Z,10.38
2022-08-22T12:08:22.539Z,9.57
2022-08-22T12:10:57.926Z,6.60
2022-08-22T12:13:52.266Z,9.15
2022-08-22T12:16:52.010Z,10.40
2022-08-22T12:20:05.642Z,10.43
2022-08-22T12:22:51.331Z,8.48
2022-08-22T12:25:44.779Z,9.60
2022-08-22T12:28:16.807Z,9.52
2022-08-22T12:31:09.096Z,7.55
2022-08-22T12:33:55.786Z,9.98
2022-08-22T12:36:36.311Z,12.00
2022-08-22T12:39:27.477Z,6.93
2022-08-22T12:42:16.339Z,8.47
2022-08-22T12:44:43.520Z,9.98
2022-08-22T12:47:36.218Z,10.10
2022-08-22T12:50:40.243Z,7.22
2022-08-22T12:53:07.368Z,11.43
2022-08-22T12:55:49.441Z,9.75
2022-08-22T12:58:21.955Z,8.05
2022-08-22T13:00:50.281Z,6.87
2022-08-22T13:03:35.564Z,7.90
2022-08-22T13:08:39.214Z,8.18
2022-08-22T13:11:22.762Z,7.32
2022-08-22T13:14:00.638Z,9.18
2022-08-22T13:16:39.072Z,8.85
2022-08-22T13:19:13.664Z,5.10
2022-08-22T13:21:48.623Z,4.85
2022-08-22T13:24:52.718Z,9.68
2022-08-22T13:27:31.654Z,5.88
2022-08-22T13:30:03.970Z,7.47
2022-08-22T13:32:33.883Z,16.70
2022-08-22T13:35:02.555Z,5.88
2022-08-22T13:37:38.163Z,6.18
2022-08-22T13:40:10.198Z,5.47
2022-08-22T13:42:48.857Z,8.00
2022-08-22T13:45:25.966Z,7.95
2022-08-22T13:48:03.665Z,9.40
2022-08-22T13:50:37.113Z,6.95
2022-08-22T13:53:40.959Z,8.73
2022-08-22T13:56:17.623Z,6.57
2022-08-22T13:58:48.243Z,5.97
2022-08-22T14:02:03.420Z,9.57
2022-08-22T14:04:36.696Z,10.05
2022-08-22T14:07:06.377Z,8.05
2022-08-22T14:09:39.372Z,8.18
2022-08-22T14:12:17.231Z,8.35
2022-08-22T14:14:54.490Z,8.05
2022-08-22T14:17:30.200Z,7.88
2022-08-22T14:20:11.047Z,8.38
2022-08-22T14:22:42.663Z,13.88
2022-08-22T14:25:21.284Z,8.18
2022-08-22T14:27:56.101Z,7.60
2022-08-22T14:30:35.480Z,6.47
2022-08-22T14:33:02.424Z,7.75
2022-08-22T14:35:38.089Z,12.65
2022-08-22T14:38:20.179Z,11.00
2022-08-22T14:40:52.187Z,7.47
2022-08-22T14:46:01.948Z,8.23
2022-08-22T14:48:43.509Z,5.95
2022-08-22T14:51:25.223Z,6.07
2022-08-22T14:53:52.719Z,11.13
2022-08-22T14:56:24.660Z,8.85
2022-08-22T14:58:59.956Z,8.50
2022-08-22T15:01:33.069Z,11.50
2022-08-22T15:04:07.890Z,6.83
2022-08-22T15:06:37.606Z,6.63
2022-08-22T15:09:22.977Z,8.23
2022-08-22T15:11:50.194Z,5.03
2022-08-22T15:14:27.870Z,6.90
2022-08-22T15:17:02.514Z,6.00
2022-08-22T15:19:35.713Z,5.30
2022-08-22T15:22:28.742Z,6.68
2022-08-22T15:25:08.523Z,6.97
2022-08-22T15:27:45.684Z,8.43
2022-08-22T15:30:21.051Z,4.82
2022-08-22T15:32:49.135Z,6.37
2022-08-22T15:35:31.739Z,7.97
2022-08-22T15:38:05.762Z,7.72
2022-08-22T15:40:45.683Z,10.90
2022-08-22T15:43:25.506Z,6.90
2022-08-22T15:46:28.283Z,11.15
2022-08-22T15:49:06.458Z,10.05
2022-08-22T15:51:37.671Z,7.10
2022-08-22T15:54:16.432Z,5.68
2022-08-22T15:57:10.489Z,7.90
2022-08-22T16:00:02.089Z,4.60
2022-08-22T16:02:35.313Z,6.05
2022-08-22T16:05:11.346Z,7.60
2022-08-22T16:07:41.115Z,5.70
2022-08-22T16:10:24.859Z,8.02
2022-08-22T16:13:10.658Z,5.72
2022-08-22T16:15:50.304Z,8.18
2022-08-22T16:18:33.758Z,9.85
2022-08-22T16:21:23.745Z,6.40
2022-08-22T16:23:56.796Z,4.93
2022-08-22T16:26:30.957Z,5.00
2022-08-22T16:29:03.965Z,7.18
2022-08-22T16:31:48.758Z,7.93
2022-08-22T16:34:18.561Z,6.00
2022-08-22T16:37:03.646Z,6.20
2022-08-22T16:40:04.290Z,5.63
2022-08-22T16:42:41.770Z,6.05
2022-08-22T16:45:33.539Z,6.53
2022-08-22T16:48:33.954Z,6.03
2022-08-22T16:51:08.612Z,9.02
2022-08-22T16:53:35.482Z,5.22
2022-08-22T16:56:05.489Z,7.25
2022-08-22T16:59:19.662Z,4.65
2022-08-22T17:02:27.960Z,8.90
2022-08-22T17:05:45.320Z,4.65
2022-08-22T17:08:24.920Z,4.32
2022-08-22T17:11:06.249Z,7.78
2022-08-22T17:14:17.659Z,5.67
2022-08-22T17:17:13.846Z,5.55
2022-08-22T17:19:55.752Z,9.73
2022-08-22T17:22:40.800Z,6.95
2022-08-22T17:25:13.366Z,5.93
2022-08-22T17:27:43.843Z,6.57
2022-08-22T17:30:15.579Z,5.72
2022-08-22T17:32:59.834Z,6.25
2022-08-22T17:35:45.717Z,4.28
2022-08-22T17:38:45.388Z,5.28
2022-08-22T17:41:21.992Z,8.32
2022-08-22T17:43:59.299Z,7.93
2022-08-22T17:46:43.795Z,5.35
2022-08-22T17:49:29.066Z,6.88
2022-08-22T17:52:08.995Z,6.30
2022-08-22T17:54:42.051Z,7.90
2022-08-22T17:57:14.514Z,6.97
2022-08-22T17:59:47.686Z,6.93
2022-08-22T18:02:20.578Z,5.72
2022-08-22T18:05:14.199Z,6.30
2022-08-22T18:08:05.042Z,5.25
2022-08-22T18:10:50.236Z,5.43
2022-08-22T18:13:55.326Z,6.60
2022-08-22T18:16:33.780Z,8.85
2022-08-22T18:19:06.452Z,6.07
2022-08-22T18:21:48.778Z,7.97
2022-08-22T18:24:33.344Z,7.70
2022-08-22T18:27:34.951Z,8.27
2022-08-22T18:30:06.036Z,7.72
2022-08-22T18:32:51.801Z,10.27
2022-08-22T18:35:21.949Z,6.72
2022-08-22T18:38:02.412Z,5.20
2022-08-22T18:40:58.952Z,5.03
2022-08-22T18:43:34.799Z,10.65
2022-08-22T18:46:23.030Z,7.55
2022-08-22T18:49:14.036Z,6.70
2022-08-22T18:51:38.817Z,9.90
2022-08-22T18:54:07.144Z,6.07
2022-08-22T18:56:54.035Z,5.85
2022-08-22T18:59:49.158Z,9.90
2022-08-22T19:02:55.920Z,8.40
2022-08-22T19:05:50.925Z,6.13
2022-08-22T19:08:53.053Z,9.90
2022-08-22T19:11:37.333Z,5.25
2022-08-22T19:17:23.522Z,7.05
2022-08-22T19:20:19.324Z,5.43
2022-08-22T19:22:50.922Z,5.07
2022-08-22T19:25:20.411Z,11.27
2022-08-22T19:28:08.838Z,5.85
2022-08-22T19:30:51.743Z,6.03
2022-08-22T19:33:34.145Z,6.07
2022-08-22T19:36:12.594Z,6.78
2022-08-22T19:38:54.527Z,5.88
2022-08-22T19:41:45.128Z,7.60
2022-08-22T19:44:33.438Z,4.78
2022-08-22T19:47:17.874Z,9.43
2022-08-22T19:49:50.858Z,8.77
2022-08-22T19:52:26.920Z,6.60
2022-08-22T19:55:12.374Z,6.75
2022-08-22T19:58:01.335Z,6.57
2022-08-22T20:00:50.294Z,6.57
2022-08-22T20:03:44.873Z,6.53
2022-08-22T20:06:46.005Z,8.25
2022-08-22T20:09:40.872Z,8.20
2022-08-22T20:12:09.196Z,7.28
2022-08-22T20:14:41.025Z,6.13
2022-08-22T20:17:25.680Z,7.28
2022-08-22T20:23:00.773Z,9.98
2022-08-22T20:25:44.389Z,11.48
2022-08-22T20:28:47.627Z,5.72
2022-08-22T20:31:25.704Z,15.35
2022-08-22T20:34:00.762Z,6.78
2022-08-22T20:36:29.323Z,5.40
2022-08-22T20:39:09.396Z,6.05
2022-08-22T20:41:41.995Z,7.50
2022-08-22T20:44:18.538Z,6.28
2022-08-22T20:47:00.996Z,5.22
2022-08-22T20:49:34.655Z,5.32
2022-08-22T20:57:17.030Z,4.28
2022-08-22T20:59:57.769Z,7.35
2022-08-22T21:02:36.031Z,5.97
2022-08-22T21:05:25.751Z,9.48
2022-08-22T21:08:03.896Z,7.38
2022-08-22T21:10:51.305Z,6.13
2022-08-22T21:13:36.562Z,6.25
2022-08-22T21:16:17.297Z,7.15
2022-08-22T21:18:52.714Z,5.97
2022-08-22T21:21:24.943Z,4.85
2022-08-22T21:23:55.515Z,4.35
2022-08-22T21:26:29.222Z,5.40
2022-08-22T21:29:04.667Z,7.50
2022-08-22T21:32:04.217Z,4.50
2022-08-22T21:34:47.008Z,7.18
2022-08-22T21:37:39.736Z,9.60
2022-08-22T21:40:17.858Z,5.18
2022-08-22T21:43:10.170Z,6.47
2022-08-22T21:45:40.064Z,6.75
2022-08-22T21:48:36.904Z,5.38
2022-08-22T21:51:38.810Z,6.10
2022-08-22T21:54:31.866Z,8.27
2022-08-22T21:57:09.534Z,3.35
2022-08-22T21:59:52.189Z,8.30
2022-08-22T22:02:41.732Z,3.58
2022-08-22T22:05:15.950Z,7.00
2022-08-22T22:07:46.754Z,9.65
2022-08-22T22:10:16.700Z,6.43
2022-08-22T22:12:46.509Z,3.92
2022-08-22T22:15:19.211Z,5.95
2022-08-22T22:17:46.326Z,6.63
2022-08-22T22:20:15.732Z,7.13
2022-08-22T22:22:46.431Z,4.78
2022-08-22T22:25:40.947Z,5.30
2022-08-22T22:28:23.720Z,6.45
2022-08-22T22:30:53.217Z,6.25
2022-08-22T22:33:23.952Z,7.95
2022-08-22T22:35:53.303Z,4.78
2022-08-22T22:38:24.133Z,9.10
2022-08-22T22:40:52.414Z,5.03
2022-08-22T22:43:19.849Z,5.20
2022-08-22T22:45:46.865Z,7.72
2022-08-22T22:48:24.295Z,6.28
2022-08-22T22:50:52.784Z,4.80
2022-08-22T22:53:21.527Z,4.97
2022-08-22T22:56:00.947Z,5.15
2022-08-22T22:58:29.172Z,5.28
2022-08-22T23:00:57.344Z,5.95
2022-08-22T23:03:26.727Z,6.45
2022-08-22T23:05:53.782Z,5.70
2022-08-22T23:08:20.754Z,3.50
2022-08-22T23:10:47.765Z,7.30
2022-08-22T23:13:14.898Z,8.63
2022-08-22T23:15:42.047Z,6.75
2022-08-22T23:18:08.966Z,5.57
2022-08-22T23:20:35.933Z,6.78
2022-08-22T23:23:02.910Z,4.63
2022-08-22T23:25:29.931Z,5.10
2022-08-22T23:27:57.429Z,5.05
2022-08-22T23:30:24.455Z,4.13
2022-08-22T23:32:51.354Z,5.85
2022-08-22T23:35:18.479Z,10.90
2022-08-22T23:37:45.391Z,6.45
2022-08-22T23:40:12.915Z,6.63
2022-08-22T23:42:40.009Z,5.00
2022-08-22T23:45:07.307Z,6.45
2022-08-22T23:47:34.198Z,2.75
2022-08-22T23:50:05.728Z,5.70
2022-08-22T23:52:33.638Z,5.93
2022-08-22T23:55:00.642Z,5.35
2022-08-22T23:57:29.422Z,5.55
2022-08-22T23:59:57.997Z,10.98
